Time;durP1;ratioP1;P1;durP2;ratioP2;P2;SDS_P1;SDS_P2;PMS_P1;PMS_P2;Temp;Humidity;BMP_temperature;BMP_pressure;BME280_temperature;BME280_humidity;BME280_pressure;Samples;Min_cycle;Max_cycle;Signal;HPM_P1;HPM_P2
2022/01/14 00:01:55;;;;;;;7.60;2.00;;;;;;;-4.01;100.00;103149.19;5034910;28;20394;-50
2022/01/14 00:04:21;;;;;;;3.28;1.70;;;;;;;-4.01;100.00;103150.06;5040038;28;20040;-53
2022/01/14 00:06:46;;;;;;;6.22;2.60;;;;;;;-4.04;100.00;103144.09;5034547;28;20060;-48
2022/01/14 00:09:13;;;;;;;4.32;2.50;;;;;;;-4.05;100.00;103152.72;5038539;28;20048;-48
2022/01/14 00:11:44;;;;;;;3.25;2.00;;;;;;;-4.03;100.00;103149.22;5036511;28;20043;-49
2022/01/14 00:14:20;;;;;;;4.88;1.80;;;;;;;-4.09;100.00;103148.50;5037353;28;20394;-54
2022/01/14 00:16:47;;;;;;;5.07;1.95;;;;;;;-4.12;100.00;103140.81;5033184;28;20453;-50
2022/01/14 00:19:13;;;;;;;5.45;1.80;;;;;;;-4.07;100.00;103136.38;5039725;28;20033;-50
2022/01/14 00:21:41;;;;;;;2.65;2.03;;;;;;;-4.08;100.00;103132.06;5034472;28;20039;-52
2022/01/14 00:32:01;;;;;;;4.90;3.08;;;;;;;-4.15;100.00;103136.53;5037854;28;20037;-50
2022/01/14 00:34:27;;;;;;;3.92;1.50;;;;;;;-4.17;100.00;103138.28;5021841;28;20041;-53
2022/01/14 00:36:52;;;;;;;7.22;2.20;;;;;;;-4.15;100.00;103138.28;5038742;28;20025;-50
2022/01/14 00:39:18;;;;;;;5.97;2.95;;;;;;;-4.10;100.00;103129.53;5035763;28;20037;-51
2022/01/14 00:41:44;;;;;;;6.03;1.88;;;;;;;-4.06;100.00;103130.31;5036837;28;20029;-51
2022/01/14 00:44:14;;;;;;;5.20;1.88;;;;;;;-4.10;100.00;103136.44;5030660;28;20056;-54
2022/01/14 00:46:43;;;;;;;4.57;1.85;;;;;;;-4.11;100.00;103139.91;5034151;28;20029;-50
2022/01/14 00:49:09;;;;;;;6.97;2.35;;;;;;;-4.12;100.00;103136.47;5037719;28;20142;-52
2022/01/14 00:51:35;;;;;;;4.93;1.90;;;;;;;-4.16;100.00;103140.00;5038727;28;20057;-51
2022/01/14 00:54:01;;;;;;;4.18;2.15;;;;;;;-4.25;100.00;103130.69;5031029;28;20041;-50
2022/01/14 00:56:32;;;;;;;8.00;1.75;;;;;;;-4.23;100.00;103138.44;5036797;28;20512;-49
2022/01/14 00:59:16;;;;;;;4.05;1.08;;;;;;;-4.21;100.00;103134.94;5038215;28;20120;-51
2022/01/14 01:01:48;;;;;;;4.80;1.80;;;;;;;-4.23;100.00;103138.44;5034217;28;20421;-54
2022/01/14 01:04:15;;;;;;;3.70;2.15;;;;;;;-4.24;100.00;103136.72;5023305;28;20041;-50
2022/01/14 01:06:41;;;;;;;1.75;0.93;;;;;;;-4.26;100.00;103128.09;5042065;28;20112;-54
2022/01/14 01:09:12;;;;;;;2.47;1.67;;;;;;;-4.32;100.00;103130.81;5035144;28;20486;-48
2022/01/14 01:11:48;;;;;;;5.28;1.92;;;;;;;-4.31;100.00;103130.81;5035555;28;20553;-51
2022/01/14 01:14:19;;;;;;;4.20;1.20;;;;;;;-4.21;100.00;103137.53;5041219;28;20037;-51
2022/01/14 01:16:45;;;;;;;5.82;1.88;;;;;;;-4.25;100.00;103130.69;5021934;28;20032;-49
2022/01/14 01:19:11;;;;;;;6.18;1.75;;;;;;;-4.20;100.00;103130.59;5035403;28;20036;-50
2022/01/14 01:21:36;;;;;;;4.50;1.98;;;;;;;-4.18;100.00;103127.09;5038037;28;20029;-48
2022/01/14 01:24:03;;;;;;;2.50;1.23;;;;;;;-4.21;100.00;103121.09;5044698;28;20086;-49
2022/01/14 01:26:33;;;;;;;2.28;1.58;;;;;;;-4.22;100.00;103122.84;5042656;28;20032;-51
2022/01/14 01:31:38;;;;;;;2.75;1.08;;;;;;;-4.17;100.00;103127.94;5041330;28;20485;-51
2022/01/14 01:34:12;;;;;;;6.85;1.67;;;;;;;-4.21;100.00;103137.53;5042024;28;20036;-54
2022/01/14 01:36:39;;;;;;;4.65;1.40;;;;;;;-4.24;100.00;103127.19;5036384;28;20116;-50
2022/01/14 01:39:07;;;;;;;3.25;1.25;;;;;;;-4.25;100.00;103122.91;5037618;28;20474;-52
2022/01/14 01:41:35;;;;;;;2.53;1.55;;;;;;;-4.27;100.00;103122.06;5048915;28;20032;-50
2022/01/14 01:44:02;;;;;;;5.50;1.58;;;;;;;-4.30;100.00;103131.66;5041378;28;20030;-52
2022/01/14 01:46:27;;;;;;;0.82;0.68;;;;;;;-4.34;100.00;103130.00;5030346;28;20053;-49
2022/01/14 01:48:53;;;;;;;3.97;1.67;;;;;;;-4.36;100.00;103124.88;5035505;28;20108;-52
2022/01/14 01:51:19;;;;;;;3.55;0.95;;;;;;;-4.41;100.00;103124.09;5049407;28;20433;-52
2022/01/14 01:53:46;;;;;;;1.95;0.68;;;;;;;-4.48;100.00;103125.09;5047880;28;20486;-51
2022/01/14 01:56:12;;;;;;;1.98;0.90;;;;;;;-4.44;100.00;103124.13;5048494;28;20122;-51
2022/01/14 01:58:38;;;;;;;3.95;1.17;;;;;;;-4.39;100.00;103122.31;5048418;28;20128;-53
2022/01/14 02:01:05;;;;;;;3.65;1.08;;;;;;;-4.40;100.00;103123.19;5048519;28;20393;-51
2022/01/14 02:03:33;;;;;;;1.67;0.85;;;;;;;-4.41;100.00;103118.91;5047865;28;20036;-49
2022/01/14 02:06:00;;;;;;;1.63;0.98;;;;;;;-4.42;100.00;103115.44;5041391;28;20071;-48
2022/01/14 02:08:25;;;;;;;2.97;0.90;;;;;;;-4.46;100.00;103124.19;5046477;28;20036;-51
2022/01/14 02:10:51;;;;;;;4.78;1.42;;;;;;;-4.46;100.00;103120.75;5048556;28;20028;-47
2022/01/14 02:13:16;;;;;;;3.20;1.13;;;;;;;-4.47;100.00;103119.88;5048519;28;20085;-50
2022/01/14 02:16:01;;;;;;;3.45;1.20;;;;;;;-4.52;100.00;103126.88;5041279;28;20034;-52
2022/01/14 02:23:41;;;;;;;4.32;2.05;;;;;;;-4.56;100.00;103124.38;5044810;28;20076;-52
2022/01/14 02:26:07;;;;;;;3.17;1.20;;;;;;;-4.57;100.00;103117.47;5037568;28;20033;-49
2022/01/14 02:28:32;;;;;;;1.58;0.73;;;;;;;-4.66;100.00;103114.19;5047814;28;20035;-49
2022/01/14 02:30:58;;;;;;;5.35;0.65;;;;;;;-4.74;100.00;103110.88;5048308;28;20064;-51
2022/01/14 02:33:24;;;;;;;2.45;0.80;;;;;;;-4.73;100.00;103107.41;5047267;28;20109;-50
2022/01/14 02:35:51;;;;;;;4.88;1.48;;;;;;;-4.73;100.00;103112.59;5046754;28;20518;-48
2022/01/14 02:38:18;;;;;;;2.45;1.08;;;;;;;-4.74;100.00;103113.47;5047397;28;20071;-52
2022/01/14 02:40:45;;;;;;;2.65;0.98;;;;;;;-4.77;100.00;103105.78;5019733;28;20057;-52
2022/01/14 02:43:16;;;;;;;6.07;1.42;;;;;;;-4.77;100.00;103100.59;5041281;28;20449;-50
2022/01/14 02:45:47;;;;;;;3.95;1.27;;;;;;;-4.70;100.00;103096.13;5032250;28;20032;-49
2022/01/14 02:48:12;;;;;;;7.70;1.10;;;;;;;-4.66;100.00;103108.16;5047569;28;20039;-48
2022/01/14 02:50:52;;;;;;;3.00;1.05;;;;;;;-4.66;100.00;103103.81;5045109;28;20025;-55
2022/01/14 02:56:03;;;;;;;0.60;0.60;;;;;;;-4.76;100.00;103097.13;5047633;28;20045;-51
2022/01/14 02:58:33;;;;;;;3.50;2.13;;;;;;;-4.79;100.00;103091.16;5045125;28;20083;-51
2022/01/14 03:01:12;;;;;;;4.25;1.20;;;;;;;-4.75;100.00;103097.97;5042137;28;20493;-51
2022/01/14 03:03:40;;;;;;;2.30;1.13;;;;;;;-4.72;100.00;103096.19;5031870;28;20063;-50
2022/01/14 03:06:06;;;;;;;3.35;1.35;;;;;;;-4.68;100.00;103096.97;5046549;28;20448;-49
2022/01/14 03:08:33;;;;;;;1.70;1.20;;;;;;;-4.65;100.00;103097.75;5050140;28;20037;-52
2022/01/14 03:11:05;;;;;;;1.50;1.00;;;;;;;-4.66;100.00;103098.66;5046837;28;20049;-54
2022/01/14 03:13:30;;;;;;;2.08;1.00;;;;;;;-4.69;100.00;103090.09;5046199;28;20033;-52
2022/01/14 03:15:56;;;;;;;3.95;1.10;;;;;;;-4.68;100.00;103087.47;5046864;28;20029;-51
2022/01/14 03:18:31;;;;;;;4.20;1.25;;;;;;;-4.67;100.00;103094.38;5044339;28;20125;-50
2022/01/14 03:21:09;;;;;;;3.03;1.15;;;;;;;-4.71;100.00;103092.72;5035596;28;20495;-48
2022/01/14 03:23:45;;;;;;;1.45;0.82;;;;;;;-4.75;100.00;103087.59;5043540;28;20022;-49
2022/01/14 03:26:11;;;;;;;6.43;0.88;;;;;;;-4.84;100.00;103088.63;5036305;28;20037;-49
2022/01/14 03:28:37;;;;;;;3.20;1.15;;;;;;;-4.91;100.00;103085.28;5024853;28;20041;-53
2022/01/14 03:31:03;;;;;;;3.13;1.10;;;;;;;-4.93;100.00;103081.91;5035860;28;20037;-52
2022/01/14 03:33:28;;;;;;;3.13;0.98;;;;;;;-4.88;100.00;103079.22;5046496;28;20030;-48
2022/01/14 03:35:53;;;;;;;2.67;1.35;;;;;;;-4.83;100.00;103077.38;5040282;28;20592;-51
2022/01/14 03:38:19;;;;;;;2.30;1.00;;;;;;;-4.80;100.00;103079.06;5011612;28;20112;-51
2022/01/14 03:40:45;;;;;;;2.80;0.73;;;;;;;-4.81;100.00;103070.47;5032400;28;20043;-51
2022/01/14 03:43:11;;;;;;;4.00;0.95;;;;;;;-4.84;100.00;103078.28;5045925;28;20041;-52
2022/01/14 03:45:38;;;;;;;1.02;0.85;;;;;;;-4.82;100.00;103071.34;5031100;28;20033;-51
2022/01/14 03:48:05;;;;;;;2.42;1.13;;;;;;;-4.85;100.00;103072.25;5047811;28;20044;-49
2022/01/14 03:50:31;;;;;;;2.95;1.48;;;;;;;-4.84;100.00;103067.94;5046605;28;20044;-53
2022/01/14 03:52:56;;;;;;;2.58;1.15;;;;;;;-4.80;100.00;103082.53;5041819;28;20049;-49
2022/01/14 03:55:21;;;;;;;4.13;0.98;;;;;;;-4.76;100.00;103067.78;5044555;28;20044;-52
2022/01/14 03:57:47;;;;;;;5.43;0.90;;;;;;;-4.75;100.00;103066.91;5047824;28;20135;-48
2022/01/14 04:00:13;;;;;;;5.82;1.38;;;;;;;-4.79;100.00;103065.25;5043889;28;20115;-53
2022/01/14 04:02:39;;;;;;;5.80;1.25;;;;;;;-4.87;100.00;103062.81;5027451;28;20398;-54
2022/01/14 04:05:04;;;;;;;3.42;1.17;;;;;;;-4.96;100.00;103073.31;5042746;28;20116;-51
2022/01/14 04:07:30;;;;;;;2.13;0.95;;;;;;;-4.98;100.00;103067.31;5031089;28;20102;-49
2022/01/14 04:09:55;;;;;;;1.67;1.00;;;;;;;-4.98;100.00;103054.38;5045008;28;20064;-50
2022/01/14 04:12:33;;;;;;;4.68;1.70;;;;;;;-4.98;100.00;103055.25;5027452;28;20107;-53
2022/01/14 04:17:23;;;;;;;2.38;1.02;;;;;;;-4.89;100.00;103055.06;5033514;28;20159;-54
2022/01/14 04:19:49;;;;;;;5.35;1.27;;;;;;;-4.87;100.00;103052.47;5032550;28;20034;-48
2022/01/14 04:22:14;;;;;;;1.77;1.10;;;;;;;-4.90;100.00;103052.53;5009597;28;20129;-53
2022/01/14 04:24:39;;;;;;;2.83;1.27;;;;;;;-4.95;100.00;103047.44;5039515;28;20071;-51
2022/01/14 04:27:05;;;;;;;7.18;1.58;;;;;;;-4.92;100.00;103046.53;5045127;28;20033;-53
2022/01/14 04:29:32;;;;;;;4.72;1.55;;;;;;;-4.98;100.00;103039.72;5036206;28;20033;-51
2022/01/14 04:31:58;;;;;;;5.03;0.98;;;;;;;-5.02;100.00;103038.06;5041228;28;20037;-48
2022/01/14 04:34:23;;;;;;;10.10;1.27;;;;;;;-5.04;100.00;103035.50;5024662;28;20037;-51
2022/01/14 04:36:48;;;;;;;7.13;2.50;;;;;;;-5.05;100.00;103027.78;5039043;28;20063;-48
2022/01/14 04:39:14;;;;;;;4.43;1.60;;;;;;;-5.11;100.00;103022.69;5041453;28;20047;-51
2022/01/14 04:41:39;;;;;;;2.90;0.82;;;;;;;-5.16;100.00;103015.03;5039534;28;20021;-53
2022/01/14 04:44:06;;;;;;;2.40;0.85;;;;;;;-5.15;100.00;103021.06;5038292;28;21236;-51
2022/01/14 04:47:01;;;;;;;0.95;0.57;;;;;;;-5.10;100.00;103014.06;5041400;28;20025;-49
2022/01/14 04:49:19;;;;;;;3.83;1.23;;;;;;;-5.10;100.00;103014.06;5043116;28;20041;-48
2022/01/14 04:51:45;;;;;;;2.83;1.85;;;;;;;-5.17;100.00;103000.38;5039838;28;20036;-51
2022/01/14 04:54:10;;;;;;;4.50;1.50;;;;;;;-5.20;100.00;103008.19;5039779;28;20051;-52
2022/01/14 04:56:36;;;;;;;2.50;1.50;;;;;;;-5.17;100.00;103002.97;5042156;28;20051;-51
2022/01/14 04:59:02;;;;;;;3.15;1.40;;;;;;;-5.14;100.00;102999.47;5032341;28;20063;-50
2022/01/14 05:01:29;;;;;;;4.45;1.17;;;;;;;-5.19;100.00;102994.38;5042094;28;20068;-51
2022/01/14 05:03:56;;;;;;;3.05;0.93;;;;;;;-5.18;100.00;102993.50;5050029;28;20397;-54
2022/01/14 05:06:22;;;;;;;5.07;1.60;;;;;;;-5.14;100.00;102992.56;5039344;28;20402;-54
2022/01/14 05:08:47;;;;;;;2.40;0.88;;;;;;;-5.10;100.00;102988.19;5044346;28;20033;-52
2022/01/14 05:13:40;;;;;;;4.95;1.52;;;;;;;-5.13;100.00;102983.94;5044871;28;20037;-53
2022/01/14 05:16:06;;;;;;;5.88;1.27;;;;;;;-5.13;100.00;102994.28;5045147;28;20071;-48
2022/01/14 05:18:31;;;;;;;0.80;0.80;;;;;;;-5.15;100.00;103002.94;5043280;28;20089;-49
2022/01/14 05:20:56;;;;;;;3.08;1.30;;;;;;;-5.18;100.00;102998.69;5041537;28;20041;-51
2022/01/14 05:23:24;;;;;;;2.90;1.30;;;;;;;-5.20;100.00;102999.59;5042478;28;20480;-51
2022/01/14 05:25:49;;;;;;;2.28;1.48;;;;;;;-5.24;100.00;103000.50;5044249;28;20040;-52
2022/01/14 05:28:15;;;;;;;2.75;1.65;;;;;;;-5.33;100.00;102996.38;5044916;28;20230;-51
2022/01/14 05:30:40;;;;;;;3.20;1.38;;;;;;;-5.36;100.00;102994.69;5043481;28;20043;-52
2022/01/14 05:33:06;;;;;;;4.55;1.48;;;;;;;-5.30;100.00;102997.16;5036802;28;20390;-50
2022/01/14 05:35:31;;;;;;;8.18;1.48;;;;;;;-5.31;100.00;102992.03;5039814;28;20041;-53
2022/01/14 05:37:57;;;;;;;7.70;2.78;;;;;;;-5.38;100.00;102991.28;5048739;28;20363;-51
2022/01/14 05:40:27;;;;;;;3.72;1.73;;;;;;;-5.37;100.00;102990.41;5041997;28;20505;-49
2022/01/14 05:42:52;;;;;;;2.60;2.17;;;;;;;-5.31;100.00;102989.44;5046221;28;20056;-54
2022/01/14 05:45:18;;;;;;;2.45;1.55;;;;;;;-5.30;100.00;102997.16;5042075;28;20068;-52
2022/01/14 05:47:44;;;;;;;6.75;1.67;;;;;;;-5.33;100.00;103001.53;5048258;28;20045;-52
2022/01/14 05:50:13;;;;;;;1.75;1.45;;;;;;;-5.32;100.00;102998.94;5032372;28;20030;-51
2022/01/14 05:52:39;;;;;;;2.60;1.92;;;;;;;-5.28;100.00;102999.72;5049578;28;20487;-53
2022/01/14 05:55:07;;;;;;;5.97;1.55;;;;;;;-5.28;100.00;102998.00;5046612;28;20164;-48
2022/01/14 05:57:34;;;;;;;6.05;2.03;;;;;;;-5.29;100.00;102998.03;5029521;28;20063;-52
2022/01/14 06:00:01;;;;;;;3.55;1.80;;;;;;;-5.28;100.00;103000.56;5046024;28;20375;-50
2022/01/14 06:02:27;;;;;;;3.78;1.70;;;;;;;-5.28;100.00;102999.72;5029268;28;20072;-50
2022/01/14 06:04:52;;;;;;;6.40;1.50;;;;;;;-5.28;100.00;102997.13;5029437;28;20069;-49
2022/01/14 06:07:17;;;;;;;9.85;1.60;;;;;;;-5.31;100.00;102998.03;5030635;28;20044;-53
2022/01/14 06:09:43;;;;;;;6.70;2.25;;;;;;;-5.38;100.00;103005.94;5047605;28;20032;-50
2022/01/14 06:12:09;;;;;;;7.57;2.00;;;;;;;-5.38;100.00;102998.19;5026514;28;20037;-53
2022/01/14 06:14:34;;;;;;;3.65;1.65;;;;;;;-5.36;100.00;103001.59;5036934;28;20048;-52
2022/01/14 06:17:00;;;;;;;6.13;2.53;;;;;;;-5.32;100.00;103004.13;5043546;28;20025;-53
2022/01/14 06:19:27;;;;;;;3.97;2.00;;;;;;;-5.39;100.00;102997.34;5036870;28;20041;-54
2022/01/14 06:21:53;;;;;;;6.97;1.35;;;;;;;-5.45;100.00;103001.75;5043617;28;20025;-48
2022/01/14 06:24:18;;;;;;;3.03;1.50;;;;;;;-5.51;100.00;102995.81;5047387;28;20048;-52
2022/01/14 06:26:43;;;;;;;3.95;1.55;;;;;;;-5.39;100.00;103001.66;5040726;28;20378;-54
2022/01/14 06:29:09;;;;;;;3.65;2.60;;;;;;;-5.32;100.00;103000.66;5034232;28;20056;-50
2022/01/14 06:31:34;;;;;;;2.47;1.33;;;;;;;-5.38;100.00;103005.94;5034908;28;20052;-52
2022/01/14 06:34:00;;;;;;;6.10;1.63;;;;;;;-5.40;100.00;103005.09;5047108;28;20029;-51
2022/01/14 06:36:26;;;;;;;2.42;1.40;;;;;;;-5.34;100.00;103000.69;5041009;28;20037;-51
2022/01/14 06:38:51;;;;;;;8.73;2.03;;;;;;;-5.29;100.00;103010.97;5041570;28;20029;-52
2022/01/14 06:41:16;;;;;;;7.85;2.45;;;;;;;-5.28;100.00;103010.91;5040114;28;20036;-55
2022/01/14 06:43:42;;;;;;;6.25;1.88;;;;;;;-5.29;100.00;103006.66;5040327;28;20036;-51
2022/01/14 06:46:07;;;;;;;3.08;1.42;;;;;;;-5.32;100.00;103006.69;5043815;28;20465;-50
2022/01/14 06:48:34;;;;;;;4.60;1.85;;;;;;;-5.41;100.00;103003.41;5044007;28;20029;-50
2022/01/14 06:50:59;;;;;;;2.05;1.13;;;;;;;-5.47;100.00;103001.78;5038233;28;20037;-48
2022/01/14 06:53:25;;;;;;;4.18;1.65;;;;;;;-5.49;100.00;102999.22;5036003;28;20630;-50
2022/01/14 06:55:50;;;;;;;2.33;1.63;;;;;;;-5.42;100.00;102996.50;5035733;28;20033;-50
2022/01/14 06:58:15;;;;;;;5.50;1.90;;;;;;;-5.36;100.00;102999.88;5036782;28;20117;-51
2022/01/14 07:00:41;;;;;;;7.05;2.47;;;;;;;-5.34;100.00;103005.03;5040068;28;20132;-51
2022/01/14 07:03:06;;;;;;;3.90;1.30;;;;;;;-5.34;100.00;103010.19;5041066;28;20518;-49
2022/01/14 07:05:32;;;;;;;8.20;1.20;;;;;;;-5.32;100.00;102998.06;5040449;28;20028;-53
2022/01/14 07:07:57;;;;;;;3.30;1.58;;;;;;;-5.36;100.00;103001.59;5022493;28;20037;-51
2022/01/14 07:10:23;;;;;;;2.85;1.35;;;;;;;-5.38;100.00;103011.13;5036940;28;20548;-51
2022/01/14 07:12:48;;;;;;;5.25;1.55;;;;;;;-5.41;100.00;103008.59;5021843;28;20034;-50
2022/01/14 07:15:16;;;;;;;2.97;1.65;;;;;;;-5.49;100.00;103012.16;5044375;28;20583;-51
2022/01/14 07:17:43;;;;;;;5.72;1.65;;;;;;;-5.57;100.00;103013.16;5056823;28;20029;-50
2022/01/14 07:20:12;;;;;;;6.15;2.17;;;;;;;-5.55;100.00;103011.38;5039046;28;20030;-49
2022/01/14 07:22:40;;;;;;;4.30;2.53;;;;;;;-5.49;100.00;103014.72;5051153;28;20033;-52
2022/01/14 07:25:06;;;;;;;7.75;2.05;;;;;;;-5.46;100.00;103006.06;5045934;28;20119;-49
2022/01/14 07:27:32;;;;;;;4.18;2.63;;;;;;;-5.44;100.00;103009.50;5037780;28;20021;-51
2022/01/14 07:29:58;;;;;;;8.35;2.05;;;;;;;-5.43;100.00;103010.34;5044894;28;20033;-51
2022/01/14 07:32:25;;;;;;;4.63;1.63;;;;;;;-5.43;100.00;103011.19;5045639;28;20407;-48
2022/01/14 07:34:50;;;;;;;4.82;1.90;;;;;;;-5.41;100.00;103008.59;5046861;28;20508;-52
2022/01/14 07:37:17;;;;;;;4.38;1.23;;;;;;;-5.42;100.00;103012.03;5038930;28;20112;-50
2022/01/14 07:39:44;;;;;;;5.68;1.85;;;;;;;-5.46;100.00;103010.41;5043698;28;20032;-52
2022/01/14 07:42:10;;;;;;;2.85;1.30;;;;;;;-5.46;100.00;103010.41;5037303;28;20032;-50
2022/01/14 07:44:35;;;;;;;4.50;1.77;;;;;;;-5.43;100.00;103005.16;5039385;28;20449;-53
2022/01/14 07:47:02;;;;;;;9.13;2.35;;;;;;;-5.39;100.00;103012.00;5037245;28;20547;-48
2022/01/14 07:49:27;;;;;;;3.42;1.58;;;;;;;-5.34;100.00;103011.03;5040028;28;20108;-48
2022/01/14 07:51:53;;;;;;;4.18;1.63;;;;;;;-5.33;100.00;103006.72;5043628;28;20098;-52
2022/01/14 07:54:18;;;;;;;8.88;2.10;;;;;;;-5.33;100.00;103007.56;5039517;28;20037;-54
2022/01/14 07:56:51;;;;;;;7.75;2.40;;;;;;;-5.34;100.00;103005.03;5037806;28;20389;-51
2022/01/14 07:59:19;;;;;;;4.75;1.05;;;;;;;-5.35;100.00;103006.72;5037712;28;20036;-50
2022/01/14 08:01:49;;;;;;;4.80;2.00;;;;;;;-5.36;100.00;103010.22;5040042;28;20060;-51
2022/01/14 08:04:16;;;;;;;4.38;1.95;;;;;;;-5.36;100.00;103011.94;5041351;28;20140;-49
2022/01/14 08:06:46;;;;;;;5.78;1.42;;;;;;;-5.34;100.00;103012.78;5043662;28;20504;-50
2022/01/14 08:09:13;;;;;;;3.47;0.98;;;;;;;-5.33;100.00;103017.91;5035949;28;20045;-54
2022/01/14 08:11:39;;;;;;;5.50;2.28;;;;;;;-5.32;100.00;103019.63;5040431;28;20157;-51
2022/01/14 08:14:04;;;;;;;4.97;1.90;;;;;;;-5.33;100.00;103020.50;5038907;28;20069;-51
2022/01/14 08:16:30;;;;;;;1.98;1.25;;;;;;;-5.33;100.00;103014.47;5040859;28;20036;-52
2022/01/14 08:18:55;;;;;;;5.32;1.58;;;;;;;-5.35;100.00;103013.63;5028940;28;20385;-49
2022/01/14 08:21:20;;;;;;;3.47;1.75;;;;;;;-5.36;100.00;103017.13;5038840;28;20040;-53
2022/01/14 08:23:46;;;;;;;5.60;1.88;;;;;;;-5.32;100.00;103018.75;5039123;28;20025;-51
2022/01/14 08:26:11;;;;;;;8.45;2.13;;;;;;;-5.29;100.00;103013.56;5040243;28;20028;-52
2022/01/14 08:28:37;;;;;;;3.63;1.40;;;;;;;-5.27;100.00;103016.94;5045008;28;20064;-50
2022/01/14 08:31:02;;;;;;;3.92;1.80;;;;;;;-5.25;100.00;103017.78;5039746;28;20036;-48
2022/01/14 08:33:28;;;;;;;4.60;1.08;;;;;;;-5.23;100.00;103003.09;5040989;28;20584;-51
2022/01/14 08:35:53;;;;;;;7.63;2.28;;;;;;;-5.22;100.00;103006.53;5041161;28;20033;-52
2022/01/14 08:38:18;;;;;;;2.65;1.38;;;;;;;-5.23;100.00;102999.66;5041759;28;20496;-49
2022/01/14 08:40:44;;;;;;;4.72;1.30;;;;;;;-5.24;100.00;102997.94;5039761;28;20034;-51
2022/01/14 08:43:09;;;;;;;3.13;1.35;;;;;;;-5.28;100.00;102995.41;5037122;28;20037;-54
2022/01/14 08:45:35;;;;;;;6.47;2.35;;;;;;;-5.24;100.00;102993.63;5038322;28;20086;-49
2022/01/14 08:48:01;;;;;;;4.40;1.15;;;;;;;-5.13;100.00;102999.47;5039809;28;20040;-51
2022/01/14 08:50:30;;;;;;;8.70;2.40;;;;;;;-5.07;100.00;102993.31;5037708;28;20029;-51
2022/01/14 08:52:59;;;;;;;7.88;2.20;;;;;;;-5.04;100.00;102993.25;5013074;28;20034;-51
2022/01/14 08:55:25;;;;;;;9.52;2.53;;;;;;;-5.03;100.00;102994.97;5036609;28;20037;-49
2022/01/14 08:57:51;;;;;;;8.00;2.30;;;;;;;-5.01;100.00;102985.41;5041617;28;20064;-50
2022/01/14 09:00:18;;;;;;;5.80;1.35;;;;;;;-4.95;100.00;102982.72;5034895;28;20027;-49
2022/01/14 09:02:44;;;;;;;11.38;1.63;;;;;;;-4.82;100.00;102980.75;5036914;28;20032;-50
2022/01/14 09:05:10;;;;;;;5.53;2.38;;;;;;;-4.72;100.00;102981.44;5031674;28;20025;-48
2022/01/14 09:07:37;;;;;;;10.30;2.25;;;;;;;-4.67;100.00;102992.56;5038354;28;20040;-51
2022/01/14 09:10:04;;;;;;;6.15;2.17;;;;;;;-4.56;100.00;102985.41;5038189;28;20044;-54
2022/01/14 09:12:30;;;;;;;7.40;1.77;;;;;;;-4.47;100.00;102992.13;5041315;28;20037;-55
2022/01/14 09:14:56;;;;;;;5.95;2.08;;;;;;;-4.42;100.00;103000.63;5039667;28;20087;-51
2022/01/14 09:17:21;;;;;;;3.08;1.40;;;;;;;-4.36;100.00;102987.56;5040166;28;20090;-52
2022/01/14 09:19:47;;;;;;;5.53;2.10;;;;;;;-4.28;100.00;102992.59;5037850;28;20076;-50
2022/01/14 09:22:17;;;;;;;4.78;1.73;;;;;;;-4.20;100.00;102998.44;5032307;28;20033;-52
2022/01/14 09:24:45;;;;;;;6.05;1.85;;;;;;;-4.08;100.00;103005.09;5033394;28;20033;-51
2022/01/14 09:27:12;;;;;;;9.63;2.05;;;;;;;-3.98;100.00;102998.81;5030620;28;20037;-53
2022/01/14 09:29:37;;;;;;;5.88;1.92;;;;;;;-3.95;100.00;102998.72;5030155;28;20086;-53
2022/01/14 09:32:03;;;;;;;4.43;1.08;;;;;;;-3.89;100.00;102998.59;5039659;28;20515;-50
2022/01/14 09:34:28;;;;;;;5.68;1.95;;;;;;;-3.79;100.00;102989.72;5041841;28;20076;-52
2022/01/14 09:36:54;;;;;;;6.15;1.02;;;;;;;-3.69;100.00;102989.47;5042031;28;20441;-52
2022/01/14 09:39:20;;;;;;;3.78;1.33;;;;;;;-3.62;100.00;102984.09;5031208;28;20099;-51
2022/01/14 09:41:46;;;;;;;3.72;1.05;;;;;;;-3.55;100.00;102987.41;5035994;28;20040;-51
2022/01/14 09:44:16;;;;;;;7.47;1.70;;;;;;;-3.46;100.00;102981.97;5034926;28;20478;-51
2022/01/14 09:46:41;;;;;;;3.88;1.80;;;;;;;-3.36;100.00;102973.06;5043002;28;20474;-53
2022/01/14 09:49:07;;;;;;;3.38;1.30;;;;;;;-3.23;100.00;102972.75;5035265;28;20044;-50
2022/01/14 09:51:32;;;;;;;16.55;2.13;;;;;;;-3.08;100.00;102977.53;5044642;28;20033;-55
2022/01/14 09:53:58;;;;;;;2.67;1.60;;;;;;;-2.97;100.00;102987.63;5016628;28;20191;-53
2022/01/14 09:56:24;;;;;;;2.50;2.05;;;;;;;-2.89;100.00;102978.75;5042775;28;20033;-50
2022/01/14 09:58:51;;;;;;;3.30;2.22;;;;;;;-2.82;100.00;102973.38;5038447;28;20033;-55
2022/01/14 10:01:21;;;;;;;5.18;1.67;;;;;;;-2.80;100.00;102966.41;5040889;28;20046;-54
2022/01/14 10:03:48;;;;;;;7.95;3.28;;;;;;;-2.76;100.00;102981.84;5044288;28;20032;-51
2022/01/14 10:06:53;;;;;;;3.83;2.10;;;;;;;-2.55;100.00;102976.94;5044086;28;20545;-50
2022/01/14 10:09:24;;;;;;;9.32;1.85;;;;;;;-2.52;100.00;102982.88;5037994;28;20122;-53
2022/01/14 10:12:25;;;;;;;5.03;1.48;;;;;;;-2.53;100.00;102980.31;5035959;28;20469;-52
2022/01/14 10:14:57;;;;;;;8.50;3.80;;;;;;;-2.47;100.00;102981.00;5039484;28;20057;-51
2022/01/14 10:17:23;;;;;;;7.97;2.00;;;;;;;-2.46;100.00;102977.50;5044475;28;20040;-48
2022/01/14 10:19:49;;;;;;;2.55;1.17;;;;;;;-2.46;100.00;102974.88;5044964;28;20037;-52
2022/01/14 10:22:27;;;;;;;8.32;2.90;;;;;;;-2.33;100.00;102977.13;5044484;28;20087;-48
2022/01/14 10:24:58;;;;;;;8.23;2.50;;;;;;;-2.10;100.00;102979.88;5041907;28;20037;-49
2022/01/14 10:27:35;;;;;;;3.72;1.73;;;;;;;-1.81;100.00;102981.56;5036678;28;20545;-50
2022/01/14 10:30:23;;;;;;;8.82;3.45;;;;;;;-1.54;100.00;102969.38;5038695;28;20040;-50
2022/01/14 10:33:05;;;;;;;5.10;2.03;;;;;;;-1.37;100.00;102973.16;5035115;28;20033;-51
2022/01/14 10:35:43;;;;;;;12.10;2.85;;;;;;;-1.17;100.00;102962.91;5041833;28;20037;-50
2022/01/14 10:38:14;;;;;;;5.15;2.00;;;;;;;-0.96;100.00;102965.66;5034102;28;20033;-53
2022/01/14 10:40:47;;;;;;;7.82;2.55;;;;;;;-0.80;100.00;102960.72;5043887;28;20146;-51
2022/01/14 10:43:16;;;;;;;3.63;2.30;;;;;;;-0.74;100.00;102963.97;5040479;28;20025;-52
2022/01/14 10:45:43;;;;;;;8.20;3.40;;;;;;;-0.80;100.00;102948.59;5043854;28;20029;-51
2022/01/14 10:48:16;;;;;;;8.65;2.78;;;;;;;-0.77;100.00;102955.44;5040043;28;20479;-48
2022/01/14 10:50:46;;;;;;;7.05;2.80;;;;;;;-0.58;100.00;102955.59;5038927;28;20151;-49
2022/01/14 10:53:23;;;;;;;5.30;2.30;;;;;;;-0.29;100.00;102946.63;5040879;28;20025;-49
2022/01/14 10:56:13;;;;;;;5.78;2.50;;;;;;;0.02;100.00;102945.41;5036516;28;20237;-47
2022/01/14 10:58:50;;;;;;;6.32;3.17;;;;;;;0.21;100.00;102942.00;5020114;28;20052;-51
2022/01/14 11:01:20;;;;;;;7.47;3.97;;;;;;;0.38;100.00;102938.66;5035606;28;20032;-51
2022/01/14 11:03:49;;;;;;;4.63;3.28;;;;;;;0.51;100.00;102925.94;5034366;28;20398;-52
2022/01/14 11:06:28;;;;;;;5.60;2.28;;;;;;;0.69;100.00;102919.09;5036694;28;20032;-53
2022/01/14 11:09:04;;;;;;;8.05;4.30;;;;;;;0.86;100.00;102924.41;5037239;28;20087;-52
2022/01/14 11:11:33;;;;;;;7.22;2.72;;;;;;;1.01;100.00;102909.84;5036206;28;20143;-53
2022/01/14 11:13:59;;;;;;;7.70;3.63;;;;;;;1.19;100.00;102905.53;5031701;28;20504;-51
2022/01/14 11:16:25;;;;;;;12.52;4.40;;;;;;;1.43;100.00;102910.53;5034401;28;20029;-53
2022/01/14 11:18:51;;;;;;;14.07;4.32;;;;;;;1.61;100.00;102901.81;5039338;28;20039;-51
2022/01/14 11:24:05;;;;;;;8.48;5.60;;;;;;;1.89;100.00;102893.47;5033516;28;20086;-52
2022/01/14 11:26:39;;;;;;;5.50;3.42;;;;;;;2.02;100.00;102887.66;5037925;28;20102;-55
2022/01/14 11:29:09;;;;;;;6.70;4.28;;;;;;;2.15;100.00;102886.09;5036941;28;20565;-50
2022/01/14 11:31:37;;;;;;;7.90;3.77;;;;;;;2.29;100.00;102872.31;5018099;28;20032;-51
2022/01/14 11:34:06;;;;;;;8.35;3.53;;;;;;;2.48;100.00;102872.19;5035675;28;20041;-49
2022/01/14 11:36:53;;;;;;;7.63;4.18;;;;;;;2.69;100.00;102870.25;5039164;28;20362;-51
2022/01/14 11:39:19;;;;;;;10.38;5.13;;;;;;;2.80;100.00;102862.66;5035807;28;20044;-51
2022/01/14 11:41:55;;;;;;;6.10;3.90;;;;;;;2.98;100.00;102864.28;5039015;28;20411;-47
2022/01/14 11:44:43;;;;;;;11.00;5.05;;;;;;;3.15;100.00;102860.75;5035374;28;20501;-51
2022/01/14 11:47:38;;;;;;;9.95;5.43;;;;;;;3.35;100.00;102856.16;5021743;28;20035;-53